Time,TemperatureF,DewpointF,PressureIn,WindDirection,WindDirectionDegrees,WindSpeedMPH,WindSpeedGustMPH,Humidity,HourlyPrecipIn,Conditions,Clouds,dailyrainin,SoftwareType,DateUTC
2013-04-18 00:00:00,37.6,32.3,30.33,NE,39,0.0,0.0,81,0.00,,,0.00,Wunderground v.1.15,2013-04-18 04:00:00,
2013-04-18 00:05:00,37.4,32.4,30.33,NE,39,0.0,0.0,82,0.00,,,0.00,Wunderground v.1.15,2013-04-18 04:05:00,
2013-04-18 00:10:00,37.2,31.9,30.33,NE,39,0.0,0.0,81,0.00,,,0.00,Wunderground v.1.15,2013-04-18 04:10:00,
2013-04-18 00:15:00,36.9,31.0,30.33,NE,38,0.0,0.0,79,0.00,,,0.00,Wunderground v.1.15,2013-04-18 04:15:00,
2013-04-18 00:25:00,36.5,31.8,30.34,NE,39,0.0,0.0,83,0.00,,,0.00,Wunderground v.1.15,2013-04-18 04:25:00,
2013-04-18 00:30:00,36.3,31.9,30.35,NE,39,0.0,0.0,84,0.00,,,0.00,Wunderground v.1.15,2013-04-18 04:30:00,
2013-04-18 00:35:00,36.0,31.6,30.35,NE,39,0.0,0.0,84,0.00,,,0.00,Wunderground v.1.15,2013-04-18 04:35:00,
2013-04-18 00:40:00,35.8,31.4,30.35,NE,39,0.0,0.0,84,0.00,,,0.00,Wunderground v.1.15,2013-04-18 04:40:00,
2013-04-18 00:45:00,35.6,31.2,30.35,NE,39,0.0,0.0,84,0.00,,,0.00,Wunderground v.1.15,2013-04-18 04:45:00,
2013-04-18 00:50:00,35.3,30.9,30.35,NE,38,0.0,0.0,84,0.00,,,0.00,Wunderground v.1.15,2013-04-18 04:50:00,
2013-04-18 01:00:00,35.3,31.5,30.35,NE,38,0.0,0.0,86,0.00,,,0.00,Wunderground v.1.15,2013-04-18 05:00:00,
2013-04-18 01:05:00,35.2,31.4,30.35,NE,39,0.0,0.0,86,0.00,,,0.00,Wunderground v.1.15,2013-04-18 05:05:00,
2013-04-18 01:15:00,34.8,31.0,30.35,NE,39,0.0,0.0,86,0.00,,,0.00,Wunderground v.1.15,2013-04-18 05:15:00,
2013-04-18 01:20:00,34.5,30.7,30.35,NE,39,0.0,0.0,86,0.00,,,0.00,Wunderground v.1.15,2013-04-18 05:20:00,
2013-04-18 01:30:00,34.1,30.4,30.34,NE,39,0.0,0.0,86,0.00,,,0.00,Wunderground v.1.15,2013-04-18 05:30:00,
2013-04-18 01:35:00,33.8,30.1,30.35,NE,39,0.0,0.0,86,0.00,,,0.00,Wunderground v.1.15,2013-04-18 05:35:00,
2013-04-18 01:45:00,33.4,29.9,30.34,NE,39,0.0,0.0,87,0.00,,,0.00,Wunderground v.1.15,2013-04-18 05:45:00,
2013-04-18 01:50:00,33.4,30.2,30.34,NE,39,0.0,0.0,88,0.00,,,0.00,Wunderground v.1.15,2013-04-18 05:50:00,
2013-04-18 01:55:00,33.2,30.0,30.34,NE,39,0.0,0.0,88,0.00,,,0.00,Wunderground v.1.15,2013-04-18 05:55:00,
2013-04-18 02:05:00,32.8,29.9,30.33,NE,39,0.0,0.0,89,0.00,,,0.00,Wunderground v.1.15,2013-04-18 06:05:00,
2013-04-18 02:15:00,32.5,29.6,30.34,NE,39,0.0,0.0,89,0.00,,,0.00,Wunderground v.1.15,2013-04-18 06:15:00,
2013-04-18 02:20:00,32.3,29.4,30.34,NE,39,0.0,0.0,89,0.00,,,0.00,Wunderground v.1.15,2013-04-18 06:20:00,
2013-04-18 02:25:00,32.2,29.6,30.34,NE,39,0.0,0.0,90,0.00,,,0.00,Wunderground v.1.15,2013-04-18 06:25:00,
2013-04-18 02:30:00,32.1,29.8,30.34,NE,39,0.0,0.0,91,0.00,,,0.00,Wunderground v.1.15,2013-04-18 06:30:00,
2013-04-18 02:40:00,31.9,29.6,30.35,NE,39,0.0,0.0,91,0.00,,,0.00,Wunderground v.1.15,2013-04-18 06:40:00,
2013-04-18 02:50:00,31.7,29.4,30.35,NE,38,0.0,0.0,91,0.00,,,0.00,Wunderground v.1.15,2013-04-18 06:50:00,
2013-04-18 02:55:00,31.5,29.2,30.35,NE,38,0.0,0.0,91,0.00,,,0.00,Wunderground v.1.15,2013-04-18 06:55:00,
2013-04-18 03:00:00,31.3,29.0,30.35,NE,39,0.0,0.0,91,0.00,,,0.00,Wunderground v.1.15,2013-04-18 07:00:00,
2013-04-18 03:05:00,31.3,29.2,30.36,NE,38,0.0,0.0,92,0.00,,,0.00,Wunderground v.1.15,2013-04-18 07:05:00,
2013-04-18 03:15:00,31.2,29.1,30.37,NE,39,0.0,0.0,92,0.00,,,0.00,Wunderground v.1.15,2013-04-18 07:15:00,
2013-04-18 03:25:00,30.9,28.9,30.37,NE,38,0.0,0.0,92,0.00,,,0.00,Wunderground v.1.15,2013-04-18 07:25:00,
2013-04-18 03:30:00,30.9,28.9,30.37,NE,38,0.0,0.0,92,0.00,,,0.00,Wunderground v.1.15,2013-04-18 07:30:00,
2013-04-18 03:35:00,30.9,29.1,30.37,NE,39,0.0,0.0,93,0.00,,,0.00,Wunderground v.1.15,2013-04-18 07:35:00,
2013-04-18 03:45:00,30.8,29.0,30.39,NE,39,0.0,0.0,93,0.00,,,0.00,Wunderground v.1.15,2013-04-18 07:45:00,
2013-04-18 03:50:00,30.8,29.0,30.39,NE,39,0.0,0.0,93,0.00,,,0.00,Wunderground v.1.15,2013-04-18 07:50:00,
2013-04-18 04:00:00,30.5,28.7,30.39,NE,38,0.0,0.0,93,0.00,,,0.00,Wunderground v.1.15,2013-04-18 08:00:00,
2013-04-18 04:05:00,30.3,28.5,30.40,NE,39,0.0,0.0,93,0.00,,,0.00,Wunderground v.1.15,2013-04-18 08:05:00,
2013-04-18 04:15:00,30.1,28.3,30.40,NE,39,0.0,0.0,93,0.00,,,0.00,Wunderground v.1.15,2013-04-18 08:15:00,
2013-04-18 04:20:00,29.9,28.1,30.40,NE,39,0.0,0.0,93,0.00,,,0.00,Wunderground v.1.15,2013-04-18 08:20:00,
2013-04-18 04:25:00,29.8,28.0,30.40,NE,39,0.0,0.0,93,0.00,,,0.00,Wunderground v.1.15,2013-04-18 08:25:00,
2013-04-18 04:35:00,29.5,27.7,30.40,NE,38,0.0,0.0,93,0.00,,,0.00,Wunderground v.1.15,2013-04-18 08:35:00,
2013-04-18 04:40:00,29.6,27.8,30.40,NE,38,0.0,0.0,93,0.00,,,0.00,Wunderground v.1.15,2013-04-18 08:40:00,
2013-04-18 04:50:00,29.9,28.4,30.41,NE,39,0.0,0.0,94,0.00,,,0.00,Wunderground v.1.15,2013-04-18 08:50:00,
2013-04-18 04:55:00,29.9,28.4,30.41,NE,39,0.0,0.0,94,0.00,,,0.00,Wunderground v.1.15,2013-04-18 08:55:00,
2013-04-18 05:00:00,29.9,28.4,30.41,NE,38,0.0,0.0,94,0.00,,,0.00,Wunderground v.1.15,2013-04-18 09:00:00,
2013-04-18 05:05:00,29.8,28.3,30.40,NE,39,0.0,0.0,94,0.00,,,0.00,Wunderground v.1.15,2013-04-18 09:05:00,
2013-04-18 05:15:00,29.8,28.3,30.40,NE,39,0.0,0.0,94,0.00,,,0.00,Wunderground v.1.15,2013-04-18 09:15:00,
2013-04-18 05:25:00,29.7,28.2,30.40,NE,38,0.0,0.0,94,0.00,,,0.00,Wunderground v.1.15,2013-04-18 09:25:00,
2013-04-18 05:30:00,29.7,28.2,30.40,NE,39,0.0,0.0,94,0.00,,,0.00,Wunderground v.1.15,2013-04-18 09:30:00,
2013-04-18 05:35:00,29.7,28.2,30.40,NE,39,0.0,0.0,94,0.00,,,0.00,Wunderground v.1.15,2013-04-18 09:35:00,
2013-04-18 05:45:00,29.5,28.0,30.40,NE,39,0.0,0.0,94,0.00,,,0.00,Wunderground v.1.15,2013-04-18 09:45:00,
2013-04-18 05:50:00,29.4,27.9,30.40,NE,39,0.0,0.0,94,0.00,,,0.00,Wunderground v.1.15,2013-04-18 09:50:00,
2013-04-18 06:00:00,29.3,27.8,30.40,NE,39,0.0,0.0,94,0.00,,,0.00,Wunderground v.1.15,2013-04-18 10:00:00,
2013-04-18 06:05:00,29.2,27.7,30.40,NE,39,0.0,0.0,94,0.00,,,0.00,Wunderground v.1.15,2013-04-18 10:05:00,
2013-04-18 06:15:00,29.2,27.7,30.40,NE,39,0.0,0.0,94,0.00,,,0.00,Wunderground v.1.15,2013-04-18 10:15:00,
2013-04-18 06:20:00,29.1,27.6,30.41,NE,39,0.0,0.0,94,0.00,,,0.00,Wunderground v.1.15,2013-04-18 10:20:00,
2013-04-18 06:30:00,29.0,27.5,30.40,NE,39,0.0,0.0,94,0.00,,,0.00,Wunderground v.1.15,2013-04-18 10:30:00,
2013-04-18 06:35:00,29.2,27.7,30.41,NE,39,0.0,0.0,94,0.00,,,0.00,Wunderground v.1.15,2013-04-18 10:35:00,
2013-04-18 06:45:00,29.7,28.4,30.41,NE,38,0.0,0.0,95,0.00,,,0.00,Wunderground v.1.15,2013-04-18 10:45:00,
2013-04-18 06:50:00,29.8,28.5,30.42,NE,39,0.0,0.0,95,0.00,,,0.00,Wunderground v.1.15,2013-04-18 10:50:00,
2013-04-18 06:55:00,30.0,28.7,30.42,NE,39,0.0,0.0,95,0.00,,,0.00,Wunderground v.1.15,2013-04-18 10:55:00,
2013-04-18 07:05:00,30.6,29.3,30.43,NE,39,0.0,0.0,95,0.00,,,0.00,Wunderground v.1.15,2013-04-18 11:05:00,
2013-04-18 07:15:00,31.2,29.9,30.43,NE,39,0.0,0.0,95,0.00,,,0.00,Wunderground v.1.15,2013-04-18 11:15:00,
2013-04-18 07:20:00,31.7,30.4,30.43,NE,39,0.0,0.0,95,0.00,,,0.00,Wunderground v.1.15,2013-04-18 11:20:00,
2013-04-18 07:25:00,32.4,31.1,30.43,NE,38,0.0,0.0,95,0.00,,,0.00,Wunderground v.1.15,2013-04-18 11:25:00,
2013-04-18 07:35:00,33.7,32.4,30.43,NE,39,0.0,0.0,95,0.00,,,0.00,Wunderground v.1.15,2013-04-18 11:35:00,
2013-04-18 07:40:00,34.3,32.8,30.43,NE,39,0.0,0.0,94,0.00,,,0.00,Wunderground v.1.15,2013-04-18 11:40:00,
2013-04-18 07:50:00,35.1,33.0,30.43,NE,39,0.0,0.0,92,0.00,,,0.00,Wunderground v.1.15,2013-04-18 11:50:00,
2013-04-18 07:55:00,35.6,33.2,30.43,NE,39,0.0,0.0,91,0.00,,,0.00,Wunderground v.1.15,2013-04-18 11:55:00,
2013-04-18 08:05:00,37.5,34.8,30.43,NE,39,0.0,0.0,90,0.00,,,0.00,Wunderground v.1.15,2013-04-18 12:05:00,
2013-04-18 08:15:00,40.2,34.5,30.42,NE,38,0.0,1.0,80,0.00,,,0.00,Wunderground v.1.15,2013-04-18 12:15:00,
2013-04-18 08:25:00,43.3,31.9,30.42,NE,46,1.0,2.0,64,0.00,,,0.00,Wunderground v.1.15,2013-04-18 12:25:00,
2013-04-18 08:35:00,45.2,30.4,30.42,NNE,20,1.0,1.0,56,0.00,,,0.00,Wunderground v.1.15,2013-04-18 12:35:00,
2013-04-18 08:40:00,45.8,28.7,30.42,NE,54,1.0,2.0,51,0.00,,,0.00,Wunderground v.1.15,2013-04-18 12:40:00,
2013-04-18 08:45:00,46.3,29.1,30.42,NNE,13,1.0,4.0,51,0.00,,,0.00,Wunderground v.1.15,2013-04-18 12:45:00,
2013-04-18 08:55:00,47.1,28.9,30.41,SE,128,1.0,2.0,49,0.00,,,0.00,Wunderground v.1.15,2013-04-18 12:55:00,
2013-04-18 09:00:00,47.6,28.9,30.41,East,96,1.0,1.0,48,0.00,,,0.00,Wunderground v.1.15,2013-04-18 13:00:00,
2013-04-18 09:05:00,48.3,30.0,30.41,SSE,152,1.0,3.0,49,0.00,,,0.00,Wunderground v.1.15,2013-04-18 13:05:00,
2013-04-18 09:15:00,48.6,28.2,30.41,East,96,3.0,4.0,45,0.00,,,0.00,Wunderground v.1.15,2013-04-18 13:15:00,
2013-04-18 09:25:00,48.9,28.5,30.40,SE,134,4.0,7.0,45,0.00,,,0.00,Wunderground v.1.15,2013-04-18 13:25:00,
2013-04-18 09:30:00,49.2,28.7,30.40,East,98,4.0,6.0,45,0.00,,,0.00,Wunderground v.1.15,2013-04-18 13:30:00,
2013-04-18 09:35:00,49.3,28.8,30.40,South,171,4.0,6.0,45,0.00,,,0.00,Wunderground v.1.15,2013-04-18 13:35:00,
2013-04-18 09:45:00,48.6,28.2,30.40,South,191,5.0,7.0,45,0.00,,,0.00,Wunderground v.1.15,2013-04-18 13:45:00,
2013-04-18 09:50:00,49.0,28.0,30.40,South,169,5.0,5.0,44,0.00,,,0.00,Wunderground v.1.15,2013-04-18 13:50:00,
2013-04-18 10:00:00,50.4,28.7,30.40,SSE,153,4.0,4.0,43,0.00,,,0.00,Wunderground v.1.15,2013-04-18 14:00:00,
2013-04-18 10:05:00,49.8,28.2,30.40,SSE,157,4.0,4.0,43,0.00,,,0.00,Wunderground v.1.15,2013-04-18 14:05:00,
2013-04-18 10:15:00,49.4,28.4,30.38,South,177,5.0,5.0,44,0.00,,,0.00,Wunderground v.1.15,2013-04-18 14:15:00,
2013-04-18 10:20:00,49.4,28.4,30.38,SE,144,4.0,4.0,44,0.00,,,0.00,Wunderground v.1.15,2013-04-18 14:20:00,
2013-04-18 10:25:00,49.6,28.6,30.38,SSW,192,4.0,4.0,44,0.00,,,0.00,Wunderground v.1.15,2013-04-18 14:25:00,
2013-04-18 10:35:00,50.0,28.9,30.38,SE,146,6.0,12.0,44,0.00,,,0.00,Wunderground v.1.15,2013-04-18 14:35:00,
2013-04-18 10:40:00,50.4,29.8,30.38,SSW,192,5.0,5.0,45,0.00,,,0.00,Wunderground v.1.15,2013-04-18 14:40:00,
2013-04-18 10:45:00,51.0,29.3,30.39,SW,217,4.0,5.0,43,0.00,,,0.00,Wunderground v.1.15,2013-04-18 14:45:00,
2013-04-18 10:55:00,53.7,31.1,30.38,SW,218,3.0,4.0,42,0.00,,,0.00,Wunderground v.1.15,2013-04-18 14:55:00,
2013-04-18 11:00:00,54.2,29.1,30.38,South,170,4.0,4.0,38,0.00,,,0.00,Wunderground v.1.15,2013-04-18 15:00:00,
2013-04-18 11:05:00,54.0,29.6,30.37,SE,145,4.0,5.0,39,0.00,,,0.00,Wunderground v.1.15,2013-04-18 15:05:00,
2013-04-18 11:15:00,54.1,29.7,30.37,SSE,168,4.0,7.0,39,0.00,,,0.00,Wunderground v.1.15,2013-04-18 15:15:00,
2013-04-18 11:20:00,54.2,31.6,30.37,South,177,6.0,6.0,42,0.00,,,0.00,Wunderground v.1.15,2013-04-18 15:20:00,
2013-04-18 11:25:00,54.4,31.2,30.36,South,175,6.0,6.0,41,0.00,,,0.00,Wunderground v.1.15,2013-04-18 15:25:00,
2013-04-18 11:30:00,55.0,31.7,30.36,SE,143,4.0,5.0,41,0.00,,,0.00,Wunderground v.1.15,2013-04-18 15:30:00,
2013-04-18 11:40:00,54.2,31.6,30.36,South,169,5.0,6.0,42,0.00,,,0.00,Wunderground v.1.15,2013-04-18 15:40:00,
2013-04-18 11:45:00,54.6,31.9,30.36,South,189,5.0,6.0,42,0.00,,,0.00,Wunderground v.1.15,2013-04-18 15:45:00,
2013-04-18 11:55:00,55.3,31.4,30.35,SSE,152,5.0,5.0,40,0.00,,,0.00,Wunderground v.1.15,2013-04-18 15:55:00,
2013-04-18 12:00:00,55.9,33.7,30.34,South,182,4.0,4.0,43,0.00,,,0.00,Wunderground v.1.15,2013-04-18 16:00:00,
2013-04-18 12:05:00,56.2,33.4,30.34,South,179,4.0,4.0,42,0.00,,,0.00,Wunderground v.1.15,2013-04-18 16:05:00,
2013-04-18 12:15:00,55.8,32.4,30.33,South,189,5.0,5.0,41,0.00,,,0.00,Wunderground v.1.15,2013-04-18 16:15:00,
2013-04-18 12:20:00,56.8,33.9,30.33,SSW,205,7.0,12.0,42,0.00,,,0.00,Wunderground v.1.15,2013-04-18 16:20:00,
2013-04-18 12:30:00,56.6,32.5,30.33,South,175,6.0,7.0,40,0.00,,,0.00,Wunderground v.1.15,2013-04-18 16:30:00,
2013-04-18 12:35:00,55.7,32.3,30.32,SSW,208,5.0,7.0,41,0.00,,,0.00,Wunderground v.1.15,2013-04-18 16:35:00,
2013-04-18 12:45:00,55.6,32.8,30.31,SSE,158,6.0,6.0,42,0.00,,,0.00,Wunderground v.1.15,2013-04-18 16:45:00,
2013-04-18 12:50:00,55.4,32.1,30.31,SSW,202,6.0,9.0,41,0.00,,,0.00,Wunderground v.1.15,2013-04-18 16:50:00,
2013-04-18 12:55:00,55.3,33.7,30.30,South,186,6.0,9.0,44,0.00,,,0.00,Wunderground v.1.15,2013-04-18 16:55:00,
2013-04-18 13:05:00,55.5,33.3,30.30,SSW,207,8.0,8.0,43,0.00,,,0.00,Wunderground v.1.15,2013-04-18 17:05:00,
2013-04-18 13:15:00,56.2,32.8,30.30,SSW,201,7.0,11.0,41,0.00,,,0.00,Wunderground v.1.15,2013-04-18 17:15:00,
2013-04-18 13:20:00,56.3,32.3,30.29,SSE,163,7.0,7.0,40,0.00,,,0.00,Wunderground v.1.15,2013-04-18 17:20:00,
2013-04-18 13:25:00,56.8,32.7,30.29,South,181,6.0,7.0,40,0.00,,,0.00,Wunderground v.1.15,2013-04-18 17:25:00,
2013-04-18 13:35:00,57.3,33.2,30.28,South,179,6.0,7.0,40,0.00,,,0.00,Wunderground v.1.15,2013-04-18 17:35:00,
2013-04-18 13:40:00,57.5,33.3,30.28,South,169,5.0,9.0,40,0.00,,,0.00,Wunderground v.1.15,2013-04-18 17:40:00,
2013-04-18 13:50:00,57.8,33.0,30.28,South,182,7.0,7.0,39,0.00,,,0.00,Wunderground v.1.15,2013-04-18 17:50:00,
2013-04-18 13:55:00,58.5,34.2,30.27,South,184,7.0,7.0,40,0.00,,,0.00,Wunderground v.1.15,2013-04-18 17:55:00,
2013-04-18 14:00:00,58.1,32.6,30.27,SSW,194,8.0,8.0,38,0.00,,,0.00,Wunderground v.1.15,2013-04-18 18:00:00,
2013-04-18 14:05:00,57.5,32.1,30.27,South,185,9.0,14.0,38,0.00,,,0.00,Wunderground v.1.15,2013-04-18 18:05:00,
2013-04-18 14:15:00,58.8,33.9,30.26,South,183,7.0,8.0,39,0.00,,,0.00,Wunderground v.1.15,2013-04-18 18:15:00,
2013-04-18 14:20:00,59.6,33.9,30.26,SSE,154,7.0,7.0,38,0.00,,,0.00,Wunderground v.1.15,2013-04-18 18:20:00,
2013-04-18 14:25:00,59.6,33.3,30.26,South,185,7.0,7.0,37,0.00,,,0.00,Wunderground v.1.15,2013-04-18 18:25:00,
2013-04-18 14:30:00,59.0,32.7,30.26,SW,232,6.0,6.0,37,0.00,,,0.00,Wunderground v.1.15,2013-04-18 18:30:00,
2013-04-18 14:40:00,59.0,34.1,30.25,ESE,112,8.0,12.0,39,0.00,,,0.00,Wunderground v.1.15,2013-04-18 18:40:00,
2013-04-18 14:45:00,58.5,34.2,30.25,SSE,147,7.0,12.0,40,0.00,,,0.00,Wunderground v.1.15,2013-04-18 18:45:00,
2013-04-18 14:50:00,59.0,35.3,30.24,South,184,7.0,7.0,41,0.00,,,0.00,Wunderground v.1.15,2013-04-18 18:50:00,
2013-04-18 15:00:00,60.4,35.3,30.24,SSE,161,7.0,10.0,39,0.00,,,0.00,Wunderground v.1.15,2013-04-18 19:00:00,
2013-04-18 15:05:00,60.4,35.9,30.24,South,188,8.0,10.0,40,0.00,,,0.00,Wunderground v.1.15,2013-04-18 19:05:00,
2013-04-18 15:15:00,59.6,35.2,30.23,South,176,7.0,9.0,40,0.00,,,0.00,Wunderground v.1.15,2013-04-18 19:15:00,
2013-04-18 15:20:00,59.4,35.7,30.23,SSE,164,7.0,11.0,41,0.00,,,0.00,Wunderground v.1.15,2013-04-18 19:20:00,
2013-04-18 15:30:00,59.4,35.7,30.22,South,184,6.0,6.0,41,0.00,,,0.00,Wunderground v.1.15,2013-04-18 19:30:00,
2013-04-18 15:35:00,59.5,35.8,30.22,South,186,5.0,6.0,41,0.00,,,0.00,Wunderground v.1.15,2013-04-18 19:35:00,
2013-04-18 15:45:00,59.9,36.1,30.21,SSE,163,5.0,5.0,41,0.00,,,0.00,Wunderground v.1.15,2013-04-18 19:45:00,
2013-04-18 15:50:00,60.2,36.4,30.21,SW,215,4.0,5.0,41,0.00,,,0.00,Wunderground v.1.15,2013-04-18 19:50:00,
2013-04-18 15:55:00,60.4,35.9,30.21,SE,137,3.0,11.0,40,0.00,,,0.00,Wunderground v.1.15,2013-04-18 19:55:00,
2013-04-18 16:05:00,60.4,37.2,30.20,SSW,194,6.0,13.0,42,0.00,,,0.00,Wunderground v.1.15,2013-04-18 20:05:00,
2013-04-18 16:15:00,60.0,36.8,30.19,South,187,5.0,7.0,42,0.00,,,0.00,Wunderground v.1.15,2013-04-18 20:15:00,
2013-04-18 16:20:00,59.7,36.6,30.20,South,180,5.0,5.0,42,0.00,,,0.00,Wunderground v.1.15,2013-04-18 20:20:00,
2013-04-18 16:25:00,59.5,36.4,30.20,SSE,167,5.0,10.0,42,0.00,,,0.00,Wunderground v.1.15,2013-04-18 20:25:00,
2013-04-18 16:30:00,59.4,36.9,30.19,South,170,6.0,6.0,43,0.00,,,0.00,Wunderground v.1.15,2013-04-18 20:30:00,
2013-04-18 16:40:00,59.4,36.9,30.20,South,188,6.0,7.0,43,0.00,,,0.00,Wunderground v.1.15,2013-04-18 20:40:00,
2013-04-18 16:45:00,59.2,36.7,30.20,SSW,196,6.0,7.0,43,0.00,,,0.00,Wunderground v.1.15,2013-04-18 20:45:00,
2013-04-18 16:55:00,59.1,37.2,30.20,SSE,155,6.0,13.0,44,0.00,,,0.00,Wunderground v.1.15,2013-04-18 20:55:00,
2013-04-18 17:00:00,59.3,37.4,30.19,SSE,159,6.0,6.0,44,0.00,,,0.00,Wunderground v.1.15,2013-04-18 21:00:00,
2013-04-18 17:05:00,59.2,37.9,30.19,SSE,151,6.0,6.0,45,0.00,,,0.00,Wunderground v.1.15,2013-04-18 21:05:00,
2013-04-18 17:15:00,59.2,36.7,30.19,SSW,204,5.0,5.0,43,0.00,,,0.00,Wunderground v.1.15,2013-04-18 21:15:00,
2013-04-18 17:20:00,59.3,37.4,30.18,South,182,5.0,6.0,44,0.00,,,0.00,Wunderground v.1.15,2013-04-18 21:20:00,
2013-04-18 17:30:00,59.3,37.9,30.18,SSE,152,4.0,4.0,45,0.00,,,0.00,Wunderground v.1.15,2013-04-18 21:30:00,
2013-04-18 17:35:00,59.1,37.2,30.18,South,187,4.0,5.0,44,0.00,,,0.00,Wunderground v.1.15,2013-04-18 21:35:00,
2013-04-18 17:40:00,59.0,37.1,30.18,SSE,160,4.0,9.0,44,0.00,,,0.00,Wunderground v.1.15,2013-04-18 21:40:00,
2013-04-18 17:50:00,58.8,37.5,30.17,South,190,4.0,6.0,45,0.00,,,0.00,Wunderground v.1.15,2013-04-18 21:50:00,
2013-04-18 17:55:00,58.7,37.4,30.17,SSW,194,4.0,6.0,45,0.00,,,0.00,Wunderground v.1.15,2013-04-18 21:55:00,
2013-04-18 18:05:00,58.4,37.7,30.16,SE,138,3.0,4.0,46,0.00,,,0.00,Wunderground v.1.15,2013-04-18 22:05:00,
2013-04-18 18:15:00,58.2,37.5,30.17,SSW,192,4.0,5.0,46,0.00,,,0.00,Wunderground v.1.15,2013-04-18 22:15:00,
2013-04-18 18:20:00,58.0,37.3,30.16,SSE,159,4.0,4.0,46,0.00,,,0.00,Wunderground v.1.15,2013-04-18 22:20:00,
2013-04-18 18:25:00,58.0,37.3,30.16,SSE,159,4.0,4.0,46,0.00,,,0.00,Wunderground v.1.15,2013-04-18 22:25:00,
2013-04-18 18:30:00,57.9,37.2,30.16,South,169,5.0,5.0,46,0.00,,,0.00,Wunderground v.1.15,2013-04-18 22:30:00,
2013-04-18 18:40:00,57.6,37.0,30.16,SSW,199,3.0,4.0,46,0.00,,,0.00,Wunderground v.1.15,2013-04-18 22:40:00,
2013-04-18 18:45:00,57.5,36.3,30.15,SSW,192,3.0,10.0,45,0.00,,,0.00,Wunderground v.1.15,2013-04-18 22:45:00,
2013-04-18 18:55:00,57.5,36.9,30.15,SSE,159,4.0,4.0,46,0.00,,,0.00,Wunderground v.1.15,2013-04-18 22:55:00,
2013-04-18 19:00:00,57.4,36.2,30.15,South,175,3.0,7.0,45,0.00,,,0.00,Wunderground v.1.15,2013-04-18 23:00:00,
2013-04-18 19:05:00,57.4,36.2,30.15,SSE,153,4.0,7.0,45,0.00,,,0.00,Wunderground v.1.15,2013-04-18 23:05:00,
2013-04-18 19:15:00,57.4,35.1,30.15,South,182,5.0,5.0,43,0.00,,,0.00,Wunderground v.1.15,2013-04-18 23:15:00,
2013-04-18 19:25:00,57.1,35.4,30.15,South,172,4.0,5.0,44,0.00,,,0.00,Wunderground v.1.15,2013-04-18 23:25:00,
2013-04-18 19:30:00,57.0,35.3,30.15,SSW,196,4.0,4.0,44,0.00,,,0.00,Wunderground v.1.15,2013-04-18 23:30:00,
2013-04-18 19:35:00,57.0,34.7,30.15,South,178,4.0,4.0,43,0.00,,,0.00,Wunderground v.1.15,2013-04-18 23:35:00,
2013-04-18 19:45:00,56.8,35.1,30.15,South,179,3.0,3.0,44,0.00,,,0.00,Wunderground v.1.15,2013-04-18 23:45:00,
2013-04-18 19:50:00,56.7,35.0,30.15,SSE,161,3.0,3.0,44,0.00,,,0.00,Wunderground v.1.15,2013-04-18 23:50:00,
2013-04-18 20:00:00,56.4,34.7,30.14,SSE,159,2.0,7.0,44,0.00,,,0.00,Wunderground v.1.15,2013-04-19 00:00:00,
2013-04-18 20:05:00,56.3,34.1,30.15,SSE,153,4.0,7.0,43,0.00,,,0.00,Wunderground v.1.15,2013-04-19 00:05:00,
2013-04-18 20:15:00,56.0,34.4,30.15,SSE,163,2.0,5.0,44,0.00,,,0.00,Wunderground v.1.15,2013-04-19 00:15:00,
2013-04-18 20:20:00,55.8,34.8,30.14,SSW,198,3.0,3.0,45,0.00,,,0.00,Wunderground v.1.15,2013-04-19 00:20:00,
2013-04-18 20:30:00,55.4,34.4,30.14,SSE,164,3.0,3.0,45,0.00,,,0.00,Wunderground v.1.15,2013-04-19 00:30:00,
2013-04-18 20:35:00,55.2,34.2,30.14,SSE,155,3.0,3.0,45,0.00,,,0.00,Wunderground v.1.15,2013-04-19 00:35:00,
2013-04-18 20:45:00,54.9,33.9,30.14,South,191,4.0,8.0,45,0.00,,,0.00,Wunderground v.1.15,2013-04-19 00:45:00,
2013-04-18 20:50:00,54.8,34.4,30.14,South,171,3.0,3.0,46,0.00,,,0.00,Wunderground v.1.15,2013-04-19 00:50:00,
2013-04-18 20:55:00,54.7,34.3,30.14,South,187,3.0,9.0,46,0.00,,,0.00,Wunderground v.1.15,2013-04-19 00:55:00,
2013-04-18 21:05:00,54.6,34.2,30.13,South,175,4.0,5.0,46,0.00,,,0.00,Wunderground v.1.15,2013-04-19 01:05:00,
2013-04-18 21:15:00,54.3,33.4,30.13,SSW,201,2.0,3.0,45,0.00,,,0.00,Wunderground v.1.15,2013-04-19 01:15:00,
2013-04-18 21:20:00,54.2,33.3,30.14,SSW,202,2.0,5.0,45,0.00,,,0.00,Wunderground v.1.15,2013-04-19 01:20:00,
2013-04-18 21:25:00,54.2,33.3,30.14,SSW,203,2.0,5.0,45,0.00,,,0.00,Wunderground v.1.15,2013-04-19 01:25:00,
2013-04-18 21:30:00,54.1,32.6,30.14,SSW,204,2.0,5.0,44,0.00,,,0.00,Wunderground v.1.15,2013-04-19 01:30:00,
2013-04-18 21:40:00,54.0,34.2,30.14,SSW,195,1.0,4.0,47,0.00,,,0.00,Wunderground v.1.15,2013-04-19 01:40:00,
2013-04-18 21:45:00,53.9,34.1,30.14,South,184,1.0,4.0,47,0.00,,,0.00,Wunderground v.1.15,2013-04-19 01:45:00,
2013-04-18 21:55:00,53.7,33.4,30.13,SSW,200,2.0,2.0,46,0.00,,,0.00,Wunderground v.1.15,2013-04-19 01:55:00,
2013-04-18 22:00:00,53.6,32.8,30.13,SW,233,2.0,4.0,45,0.00,,,0.00,Wunderground v.1.15,2013-04-19 02:00:00,
2013-04-18 22:05:00,53.5,32.7,30.13,SSW,194,2.0,4.0,45,0.00,,,0.00,Wunderground v.1.15,2013-04-19 02:05:00,
2013-04-18 22:15:00,53.3,33.0,30.13,SSE,161,2.0,5.0,46,0.00,,,0.00,Wunderground v.1.15,2013-04-19 02:15:00,
2013-04-18 22:25:00,53.1,32.8,30.13,South,184,1.0,2.0,46,0.00,,,0.00,Wunderground v.1.15,2013-04-19 02:25:00,
2013-04-18 22:30:00,53.1,32.8,30.13,SSW,205,1.0,1.0,46,0.00,,,0.00,Wunderground v.1.15,2013-04-19 02:30:00,
2013-04-18 22:40:00,53.1,32.8,30.12,SSW,195,2.0,2.0,46,0.00,,,0.00,Wunderground v.1.15,2013-04-19 02:40:00,
2013-04-18 22:45:00,53.0,32.2,30.12,SSE,168,2.0,2.0,45,0.00,,,0.00,Wunderground v.1.15,2013-04-19 02:45:00,
2013-04-18 22:50:00,53.0,32.2,30.13,SSW,194,2.0,2.0,45,0.00,,,0.00,Wunderground v.1.15,2013-04-19 02:50:00,
2013-04-18 23:00:00,52.8,32.0,30.13,SSW,192,1.0,1.0,45,0.00,,,0.00,Wunderground v.1.15,2013-04-19 03:00:00,
2013-04-18 23:05:00,52.7,31.9,30.12,SSW,192,1.0,1.0,45,0.00,,,0.00,Wunderground v.1.15,2013-04-19 03:05:00,
2013-04-18 23:15:00,52.6,32.4,30.12,SSW,192,0.0,0.0,46,0.00,,,0.00,Wunderground v.1.15,2013-04-19 03:15:00,
2013-04-18 23:20:00,52.5,33.4,30.12,SSW,192,0.0,0.0,48,0.00,,,0.00,Wunderground v.1.15,2013-04-19 03:20:00,
2013-04-18 23:30:00,52.3,33.2,30.12,SSW,213,0.0,1.0,48,0.00,,,0.00,Wunderground v.1.15,2013-04-19 03:30:00,
2013-04-18 23:35:00,52.1,32.5,30.12,SSW,199,0.0,1.0,47,0.00,,,0.00,Wunderground v.1.15,2013-04-19 03:35:00,
2013-04-18 23:45:00,51.9,32.8,30.11,SSW,198,1.0,2.0,48,0.00,,,0.00,Wunderground v.1.15,2013-04-19 03:45:00,
2013-04-18 23:50:00,51.9,32.8,30.11,SSW,202,1.0,1.0,48,0.00,,,0.00,Wunderground v.1.15,2013-04-19 03:50:00,
2013-04-18 23:55:00,51.8,32.7,30.10,SSW,202,1.0,2.0,48,0.00,,,0.00,Wunderground v.1.15,2013-04-19 03:55:00,